sensor_id;sensor_type;location;lat;lon;timestamp;pressure;altitude;pressure_sealevel;temperature;humidity
75166;BME280;63747;48.042;10.088;2023-06-22T00:00:42;95145.84;;;18.79;65.15
75166;BME280;63747;48.042;10.088;2023-06-22T00:03:43;95131.84;;;18.70;65.79
75166;BME280;63747;48.042;10.088;2023-06-22T00:06:44;95134.94;;;18.55;66.39
75166;BME280;63747;48.042;10.088;2023-06-22T00:09:45;95140.00;;;18.45;64.90
75166;BME280;63747;48.042;10.088;2023-06-22T00:12:45;95127.09;;;18.35;66.28
75166;BME280;63747;48.042;10.088;2023-06-22T00:15:46;95120.47;;;18.19;66.20
75166;BME280;63747;48.042;10.088;2023-06-22T00:18:46;95124.88;;;18.32;66.10
75166;BME280;63747;48.042;10.088;2023-06-22T00:21:50;95135.78;;;18.37;66.39
75166;BME280;63747;48.042;10.088;2023-06-22T00:24:55;95136.50;;;18.44;66.17
75166;BME280;63747;48.042;10.088;2023-06-22T00:27:55;95132.63;;;18.40;66.82
75166;BME280;63747;48.042;10.088;2023-06-22T00:30:56;95125.91;;;18.49;64.46
75166;BME280;63747;48.042;10.088;2023-06-22T00:33:57;95120.47;;;18.56;64.60
75166;BME280;63747;48.042;10.088;2023-06-22T00:36:57;95140.59;;;18.65;63.41
75166;BME280;63747;48.042;10.088;2023-06-22T00:39:59;95136.94;;;18.60;65.01
75166;BME280;63747;48.042;10.088;2023-06-22T00:43:00;95138.72;;;18.47;64.45
75166;BME280;63747;48.042;10.088;2023-06-22T00:46:01;95120.91;;;18.53;64.86
75166;BME280;63747;48.042;10.088;2023-06-22T00:49:01;95116.13;;;18.55;62.57
75166;BME280;63747;48.042;10.088;2023-06-22T00:52:06;95126.28;;;18.53;64.08
75166;BME280;63747;48.042;10.088;2023-06-22T00:55:14;95123.59;;;18.53;65.11
75166;BME280;63747;48.042;10.088;2023-06-22T00:58:18;95124.34;;;18.42;65.62
75166;BME280;63747;48.042;10.088;2023-06-22T01:01:21;95128.38;;;18.33;66.14
75166;BME280;63747;48.042;10.088;2023-06-22T01:04:23;95119.25;;;18.15;65.08
75166;BME280;63747;48.042;10.088;2023-06-22T01:07:42;95112.63;;;18.00;67.05
75166;BME280;63747;48.042;10.088;2023-06-22T01:14:10;95114.59;;;17.86;67.36
75166;BME280;63747;48.042;10.088;2023-06-22T01:17:15;95122.44;;;17.62;68.46
75166;BME280;63747;48.042;10.088;2023-06-22T01:20:16;95118.56;;;17.58;68.69
75166;BME280;63747;48.042;10.088;2023-06-22T01:23:27;95117.03;;;17.44;69.11
75166;BME280;63747;48.042;10.088;2023-06-22T01:26:44;95123.69;;;17.35;69.63
75166;BME280;63747;48.042;10.088;2023-06-22T01:29:51;95114.38;;;17.37;69.69
75166;BME280;63747;48.042;10.088;2023-06-22T01:32:53;95115.97;;;17.45;69.06
75166;BME280;63747;48.042;10.088;2023-06-22T01:35:55;95116.66;;;17.34;69.31
75166;BME280;63747;48.042;10.088;2023-06-22T01:38:57;95125.34;;;17.36;68.42
75166;BME280;63747;48.042;10.088;2023-06-22T01:41:59;95130.94;;;17.28;69.29
75166;BME280;63747;48.042;10.088;2023-06-22T01:45:01;95130.78;;;17.23;69.67
75166;BME280;63747;48.042;10.088;2023-06-22T01:48:02;95132.06;;;17.13;70.55
75166;BME280;63747;48.042;10.088;2023-06-22T01:51:03;95135.78;;;17.06;69.83
75166;BME280;63747;48.042;10.088;2023-06-22T01:54:06;95130.69;;;16.98;70.81
75166;BME280;63747;48.042;10.088;2023-06-22T01:57:07;95141.44;;;16.91;71.00
75166;BME280;63747;48.042;10.088;2023-06-22T02:00:18;95138.38;;;16.88;71.50
75166;BME280;63747;48.042;10.088;2023-06-22T02:03:28;95154.56;;;16.99;70.81
75166;BME280;63747;48.042;10.088;2023-06-22T02:06:34;95137.75;;;16.85;72.19
75166;BME280;63747;48.042;10.088;2023-06-22T02:09:38;95142.94;;;16.80;71.85
75166;BME280;63747;48.042;10.088;2023-06-22T02:12:43;95148.41;;;16.99;71.12
75166;BME280;63747;48.042;10.088;2023-06-22T02:15:45;95150.81;;;17.07;70.64
75166;BME280;63747;48.042;10.088;2023-06-22T02:18:51;95155.03;;;16.90;72.13
75166;BME280;63747;48.042;10.088;2023-06-22T02:21:52;95167.22;;;16.79;72.52
75166;BME280;63747;48.042;10.088;2023-06-22T02:24:52;95156.19;;;16.69;72.14
75166;BME280;63747;48.042;10.088;2023-06-22T02:27:53;95165.00;;;16.76;71.43
75166;BME280;63747;48.042;10.088;2023-06-22T02:30:53;95157.31;;;16.86;71.21
75166;BME280;63747;48.042;10.088;2023-06-22T02:33:54;95162.06;;;16.84;70.78
75166;BME280;63747;48.042;10.088;2023-06-22T02:36:55;95163.16;;;16.76;71.29
75166;BME280;63747;48.042;10.088;2023-06-22T02:39:55;95158.00;;;16.75;71.40
75166;BME280;63747;48.042;10.088;2023-06-22T02:42:56;95165.34;;;16.86;71.28
75166;BME280;63747;48.042;10.088;2023-06-22T02:46:01;95163.97;;;16.77;71.82
75166;BME280;63747;48.042;10.088;2023-06-22T02:49:02;95171.41;;;16.68;71.00
75166;BME280;63747;48.042;10.088;2023-06-22T02:52:03;95174.91;;;16.69;71.45
75166;BME280;63747;48.042;10.088;2023-06-22T02:55:04;95180.84;;;16.77;71.15
75166;BME280;63747;48.042;10.088;2023-06-22T02:58:04;95175.56;;;16.57;71.97
75166;BME280;63747;48.042;10.088;2023-06-22T03:01:05;95176.84;;;16.48;72.42
75166;BME280;63747;48.042;10.088;2023-06-22T03:04:07;95177.06;;;16.47;72.85
75166;BME280;63747;48.042;10.088;2023-06-22T03:07:08;95171.88;;;16.45;72.84
75166;BME280;63747;48.042;10.088;2023-06-22T03:10:12;95171.69;;;16.53;72.61
75166;BME280;63747;48.042;10.088;2023-06-22T03:13:13;95170.22;;;16.57;72.00
75166;BME280;63747;48.042;10.088;2023-06-22T03:16:13;95177.25;;;16.45;72.48
75166;BME280;63747;48.042;10.088;2023-06-22T03:19:14;95172.69;;;16.52;71.97
75166;BME280;63747;48.042;10.088;2023-06-22T03:22:15;95173.47;;;16.66;71.73
75166;BME280;63747;48.042;10.088;2023-06-22T03:25:15;95171.78;;;16.72;71.28
75166;BME280;63747;48.042;10.088;2023-06-22T03:28:16;95161.34;;;16.64;71.75
75166;BME280;63747;48.042;10.088;2023-06-22T03:31:17;95170.41;;;16.63;71.91
75166;BME280;63747;48.042;10.088;2023-06-22T03:34:21;95164.00;;;16.64;71.58
75166;BME280;63747;48.042;10.088;2023-06-22T03:37:22;95157.63;;;16.65;71.55
75166;BME280;63747;48.042;10.088;2023-06-22T03:40:22;95162.13;;;16.71;71.41
75166;BME280;63747;48.042;10.088;2023-06-22T03:43:23;95164.00;;;16.70;70.68
75166;BME280;63747;48.042;10.088;2023-06-22T03:46:23;95154.09;;;16.71;70.49
75166;BME280;63747;48.042;10.088;2023-06-22T03:49:24;95162.31;;;16.76;70.69
75166;BME280;63747;48.042;10.088;2023-06-22T03:52:25;95156.38;;;16.74;71.28
75166;BME280;63747;48.042;10.088;2023-06-22T03:55:25;95162.34;;;16.69;70.23
75166;BME280;63747;48.042;10.088;2023-06-22T03:58:26;95159.91;;;16.68;70.66
75166;BME280;63747;48.042;10.088;2023-06-22T04:01:32;95164.47;;;16.54;72.08
75166;BME280;63747;48.042;10.088;2023-06-22T04:04:33;95157.88;;;16.50;72.36
75166;BME280;63747;48.042;10.088;2023-06-22T04:07:35;95171.91;;;16.39;72.93
75166;BME280;63747;48.042;10.088;2023-06-22T04:10:37;95154.66;;;16.28;73.06
75166;BME280;63747;48.042;10.088;2023-06-22T04:13:37;95153.84;;;16.34;72.47
75166;BME280;63747;48.042;10.088;2023-06-22T04:16:38;95144.78;;;16.35;72.33
75166;BME280;63747;48.042;10.088;2023-06-22T04:19:39;95147.41;;;16.48;71.87
75166;BME280;63747;48.042;10.088;2023-06-22T04:22:40;95150.41;;;16.65;71.28
75166;BME280;63747;48.042;10.088;2023-06-22T04:25:40;95143.38;;;16.77;71.01
75166;BME280;63747;48.042;10.088;2023-06-22T04:28:41;95160.09;;;16.66;71.38
75166;BME280;63747;48.042;10.088;2023-06-22T04:31:42;95148.00;;;16.50;71.56
75166;BME280;63747;48.042;10.088;2023-06-22T04:34:43;95140.97;;;16.63;71.21
75166;BME280;63747;48.042;10.088;2023-06-22T04:37:44;95133.47;;;16.78;71.14
75166;BME280;63747;48.042;10.088;2023-06-22T04:40:48;95135.34;;;16.77;71.91
75166;BME280;63747;48.042;10.088;2023-06-22T04:43:49;95138.00;;;16.77;72.01
75166;BME280;63747;48.042;10.088;2023-06-22T04:46:58;95135.06;;;16.85;72.13
75166;BME280;63747;48.042;10.088;2023-06-22T04:50:03;95133.00;;;16.94;72.07
75166;BME280;63747;48.042;10.088;2023-06-22T04:53:05;95137.31;;;16.95;72.70
75166;BME280;63747;48.042;10.088;2023-06-22T04:56:08;95134.16;;;17.05;72.65
75166;BME280;63747;48.042;10.088;2023-06-22T04:59:08;95132.84;;;17.21;72.46
75166;BME280;63747;48.042;10.088;2023-06-22T05:02:13;95133.53;;;17.41;72.02
75166;BME280;63747;48.042;10.088;2023-06-22T05:05:14;95131.47;;;17.43;71.84
75166;BME280;63747;48.042;10.088;2023-06-22T05:08:14;95133.41;;;17.54;71.57
75166;BME280;63747;48.042;10.088;2023-06-22T05:11:15;95121.53;;;17.68;71.28
75166;BME280;63747;48.042;10.088;2023-06-22T05:14:16;95137.75;;;17.80;70.78
75166;BME280;63747;48.042;10.088;2023-06-22T05:17:16;95127.41;;;17.84;71.03
75166;BME280;63747;48.042;10.088;2023-06-22T05:20:19;95115.81;;;17.90;70.83
75166;BME280;63747;48.042;10.088;2023-06-22T05:23:20;95120.59;;;18.06;69.66
75166;BME280;63747;48.042;10.088;2023-06-22T05:26:20;95119.94;;;18.29;69.21
75166;BME280;63747;48.042;10.088;2023-06-22T05:29:21;95129.50;;;18.43;68.60
75166;BME280;63747;48.042;10.088;2023-06-22T05:32:22;95126.88;;;18.73;67.96
75166;BME280;63747;48.042;10.088;2023-06-22T05:35:22;95128.16;;;18.71;68.11
75166;BME280;63747;48.042;10.088;2023-06-22T05:38:23;95118.91;;;18.85;67.52
75166;BME280;63747;48.042;10.088;2023-06-22T05:41:24;95124.59;;;19.07;67.04
75166;BME280;63747;48.042;10.088;2023-06-22T05:44:24;95132.81;;;19.24;66.68
75166;BME280;63747;48.042;10.088;2023-06-22T05:47:25;95124.53;;;19.25;66.72
75166;BME280;63747;48.042;10.088;2023-06-22T05:50:25;95122.53;;;19.21;67.03
75166;BME280;63747;48.042;10.088;2023-06-22T05:53:26;95120.09;;;19.31;66.51
75166;BME280;63747;48.042;10.088;2023-06-22T05:56:27;95118.50;;;19.42;66.57
75166;BME280;63747;48.042;10.088;2023-06-22T05:59:27;95115.75;;;19.60;65.97
75166;BME280;63747;48.042;10.088;2023-06-22T06:02:28;95120.00;;;19.79;65.96
75166;BME280;63747;48.042;10.088;2023-06-22T06:05:29;95123.84;;;20.07;64.87
75166;BME280;63747;48.042;10.088;2023-06-22T06:08:30;95129.31;;;20.35;64.68
75166;BME280;63747;48.042;10.088;2023-06-22T06:11:30;95131.25;;;20.75;63.01
75166;BME280;63747;48.042;10.088;2023-06-22T06:14:31;95129.50;;;20.81;62.58
75166;BME280;63747;48.042;10.088;2023-06-22T06:17:32;95114.03;;;21.05;62.05
75166;BME280;63747;48.042;10.088;2023-06-22T06:20:32;95110.47;;;21.44;60.90
75166;BME280;63747;48.042;10.088;2023-06-22T06:23:33;95113.16;;;21.61;59.63
75166;BME280;63747;48.042;10.088;2023-06-22T06:26:34;95122.78;;;21.86;59.22
75166;BME280;63747;48.042;10.088;2023-06-22T06:29:35;95120.13;;;22.08;58.22
75166;BME280;63747;48.042;10.088;2023-06-22T06:32:36;95121.50;;;22.27;58.22
75166;BME280;63747;48.042;10.088;2023-06-22T06:35:37;95112.72;;;22.37;57.55
75166;BME280;63747;48.042;10.088;2023-06-22T06:38:38;95113.22;;;22.34;57.92
75166;BME280;63747;48.042;10.088;2023-06-22T06:41:39;95114.66;;;22.58;57.05
75166;BME280;63747;48.042;10.088;2023-06-22T06:44:39;95109.41;;;22.95;56.27
75166;BME280;63747;48.042;10.088;2023-06-22T06:47:40;95104.81;;;22.96;56.27
75166;BME280;63747;48.042;10.088;2023-06-22T06:50:41;95094.09;;;23.28;55.86
75166;BME280;63747;48.042;10.088;2023-06-22T06:53:43;95093.91;;;23.67;54.66
75166;BME280;63747;48.042;10.088;2023-06-22T06:56:44;95097.59;;;23.55;55.20
75166;BME280;63747;48.042;10.088;2023-06-22T06:59:48;95082.41;;;23.49;54.41
75166;BME280;63747;48.042;10.088;2023-06-22T07:02:49;95092.53;;;23.64;54.75
75166;BME280;63747;48.042;10.088;2023-06-22T07:05:50;95095.78;;;23.98;54.02
75166;BME280;63747;48.042;10.088;2023-06-22T07:08:51;95090.84;;;24.32;53.66
75166;BME280;63747;48.042;10.088;2023-06-22T07:11:51;95094.28;;;24.55;53.13
75166;BME280;63747;48.042;10.088;2023-06-22T07:14:53;95099.56;;;24.87;51.92
75166;BME280;63747;48.042;10.088;2023-06-22T07:17:54;95094.16;;;24.87;51.27
75166;BME280;63747;48.042;10.088;2023-06-22T07:20:54;95086.00;;;24.92;51.07
75166;BME280;63747;48.042;10.088;2023-06-22T07:23:55;95090.09;;;24.99;51.35
75166;BME280;63747;48.042;10.088;2023-06-22T07:26:56;95080.63;;;25.12;51.59
75166;BME280;63747;48.042;10.088;2023-06-22T07:29:59;95081.81;;;25.42;51.08
75166;BME280;63747;48.042;10.088;2023-06-22T07:33:00;95085.63;;;25.66;50.15
75166;BME280;63747;48.042;10.088;2023-06-22T07:36:04;95091.34;;;25.90;49.40
75166;BME280;63747;48.042;10.088;2023-06-22T07:39:07;95083.75;;;25.87;49.29
75166;BME280;63747;48.042;10.088;2023-06-22T07:42:08;95086.19;;;26.09;48.85
75166;BME280;63747;48.042;10.088;2023-06-22T07:45:09;95084.22;;;26.35;48.35
75166;BME280;63747;48.042;10.088;2023-06-22T07:48:10;95083.19;;;26.11;49.21
75166;BME280;63747;48.042;10.088;2023-06-22T07:51:11;95086.66;;;26.37;48.25
75166;BME280;63747;48.042;10.088;2023-06-22T07:54:13;95094.84;;;26.21;48.27
75166;BME280;63747;48.042;10.088;2023-06-22T07:57:15;95094.84;;;26.31;48.41
75166;BME280;63747;48.042;10.088;2023-06-22T08:00:16;95088.72;;;26.80;48.01
75166;BME280;63747;48.042;10.088;2023-06-22T08:03:17;95089.38;;;27.17;46.91
75166;BME280;63747;48.042;10.088;2023-06-22T08:06:18;95089.06;;;27.23;46.33
75166;BME280;63747;48.042;10.088;2023-06-22T08:09:18;95091.84;;;27.18;45.89
75166;BME280;63747;48.042;10.088;2023-06-22T08:12:19;95093.25;;;26.95;46.79
75166;BME280;63747;48.042;10.088;2023-06-22T08:15:20;95090.72;;;27.24;46.58
75166;BME280;63747;48.042;10.088;2023-06-22T08:18:22;95098.38;;;27.17;47.43
75166;BME280;63747;48.042;10.088;2023-06-22T08:21:22;95088.03;;;27.14;47.61
75166;BME280;63747;48.042;10.088;2023-06-22T08:24:23;95082.38;;;27.00;47.27
75166;BME280;63747;48.042;10.088;2023-06-22T08:27:24;95080.28;;;26.82;46.97
75166;BME280;63747;48.042;10.088;2023-06-22T08:30:24;95071.59;;;26.80;48.09
75166;BME280;63747;48.042;10.088;2023-06-22T08:33:25;95078.59;;;27.46;46.36
75166;BME280;63747;48.042;10.088;2023-06-22T08:36:28;95070.78;;;27.34;46.74
75166;BME280;63747;48.042;10.088;2023-06-22T08:39:32;95071.94;;;27.96;45.52
75166;BME280;63747;48.042;10.088;2023-06-22T08:42:33;95072.13;;;28.05;44.86
75166;BME280;63747;48.042;10.088;2023-06-22T08:45:34;95071.72;;;27.53;44.66
75166;BME280;63747;48.042;10.088;2023-06-22T08:48:35;95079.66;;;27.84;45.66
75166;BME280;63747;48.042;10.088;2023-06-22T08:51:36;95074.53;;;28.40;44.51
75166;BME280;63747;48.042;10.088;2023-06-22T08:54:36;95067.03;;;28.99;44.57
75166;BME280;63747;48.042;10.088;2023-06-22T08:57:37;95071.06;;;29.44;43.33
75166;BME280;63747;48.042;10.088;2023-06-22T09:00:39;95065.59;;;29.44;42.24
75166;BME280;63747;48.042;10.088;2023-06-22T09:03:39;95076.28;;;29.22;43.43
75166;BME280;63747;48.042;10.088;2023-06-22T09:06:40;95078.81;;;29.75;42.59
75166;BME280;63747;48.042;10.088;2023-06-22T09:09:45;95064.84;;;30.09;40.75
75166;BME280;63747;48.042;10.088;2023-06-22T09:12:45;95068.56;;;29.80;41.32
75166;BME280;63747;48.042;10.088;2023-06-22T09:15:46;95066.41;;;29.45;42.65
75166;BME280;63747;48.042;10.088;2023-06-22T09:18:48;95072.81;;;29.16;41.90
75166;BME280;63747;48.042;10.088;2023-06-22T09:21:48;95075.22;;;28.99;43.68
75166;BME280;63747;48.042;10.088;2023-06-22T09:24:49;95081.03;;;29.35;42.92
75166;BME280;63747;48.042;10.088;2023-06-22T09:27:50;95083.34;;;29.79;41.69
75166;BME280;63747;48.042;10.088;2023-06-22T09:30:50;95084.81;;;30.09;41.32
75166;BME280;63747;48.042;10.088;2023-06-22T09:33:54;95074.25;;;30.03;41.85
75166;BME280;63747;48.042;10.088;2023-06-22T09:36:55;95070.59;;;30.40;40.75
75166;BME280;63747;48.042;10.088;2023-06-22T09:39:57;95075.34;;;30.48;39.67
75166;BME280;63747;48.042;10.088;2023-06-22T09:42:58;95086.84;;;30.78;39.17
75166;BME280;63747;48.042;10.088;2023-06-22T09:45:58;95081.38;;;30.64;38.96
75166;BME280;63747;48.042;10.088;2023-06-22T09:48:59;95079.94;;;31.08;40.13
75166;BME280;63747;48.042;10.088;2023-06-22T09:52:00;95070.97;;;31.30;38.91
75166;BME280;63747;48.042;10.088;2023-06-22T09:55:00;95085.34;;;31.35;38.10
75166;BME280;63747;48.042;10.088;2023-06-22T09:58:03;95087.34;;;31.57;37.91
75166;BME280;63747;48.042;10.088;2023-06-22T10:01:04;95093.41;;;31.68;37.68
75166;BME280;63747;48.042;10.088;2023-06-22T10:04:05;95094.78;;;31.79;38.75
75166;BME280;63747;48.042;10.088;2023-06-22T10:07:06;95095.44;;;31.62;38.23
75166;BME280;63747;48.042;10.088;2023-06-22T10:10:07;95101.88;;;31.58;38.88
75166;BME280;63747;48.042;10.088;2023-06-22T10:13:09;95094.97;;;31.83;38.49
75166;BME280;63747;48.042;10.088;2023-06-22T10:16:10;95077.16;;;31.71;39.02
75166;BME280;63747;48.042;10.088;2023-06-22T10:19:11;95073.16;;;31.78;38.92
75166;BME280;63747;48.042;10.088;2023-06-22T10:22:12;95069.66;;;32.31;38.16
75166;BME280;63747;48.042;10.088;2023-06-22T10:25:13;95070.91;;;32.24;38.31
75166;BME280;63747;48.042;10.088;2023-06-22T10:28:14;95080.72;;;32.17;38.50
75166;BME280;63747;48.042;10.088;2023-06-22T10:31:14;95071.88;;;31.97;38.61
75166;BME280;63747;48.042;10.088;2023-06-22T10:34:16;95077.53;;;32.23;38.20
75166;BME280;63747;48.042;10.088;2023-06-22T10:37:17;95069.03;;;32.34;37.72
75166;BME280;63747;48.042;10.088;2023-06-22T10:40:17;95074.50;;;32.56;38.55
75166;BME280;63747;48.042;10.088;2023-06-22T10:43:18;95070.69;;;32.74;37.82
75166;BME280;63747;48.042;10.088;2023-06-22T10:46:19;95070.16;;;33.12;37.62
75166;BME280;63747;48.042;10.088;2023-06-22T10:49:20;95056.63;;;33.24;36.34
75166;BME280;63747;48.042;10.088;2023-06-22T10:52:21;95046.25;;;33.04;37.18
75166;BME280;63747;48.042;10.088;2023-06-22T10:55:21;95046.31;;;32.73;37.27
75166;BME280;63747;48.042;10.088;2023-06-22T10:58:22;95044.28;;;32.25;38.32
75166;BME280;63747;48.042;10.088;2023-06-22T11:01:23;95053.84;;;33.07;38.83
75166;BME280;63747;48.042;10.088;2023-06-22T11:04:24;95050.69;;;33.92;36.48
75166;BME280;63747;48.042;10.088;2023-06-22T11:07:25;95055.66;;;34.07;35.21
75166;BME280;63747;48.042;10.088;2023-06-22T11:10:27;95046.28;;;33.39;36.26
75166;BME280;63747;48.042;10.088;2023-06-22T11:13:27;95041.31;;;33.58;37.27
75166;BME280;63747;48.042;10.088;2023-06-22T11:16:28;95029.50;;;33.75;36.30
75166;BME280;63747;48.042;10.088;2023-06-22T11:19:29;95035.00;;;33.40;36.49
75166;BME280;63747;48.042;10.088;2023-06-22T11:22:29;95016.88;;;33.65;34.09
75166;BME280;63747;48.042;10.088;2023-06-22T11:25:34;95011.69;;;33.72;33.78
75166;BME280;63747;48.042;10.088;2023-06-22T11:28:34;95005.22;;;33.94;33.61
75166;BME280;63747;48.042;10.088;2023-06-22T11:31:35;95009.09;;;33.84;33.56
75166;BME280;63747;48.042;10.088;2023-06-22T11:34:36;94999.84;;;34.15;32.37
75166;BME280;63747;48.042;10.088;2023-06-22T11:37:37;94999.78;;;34.71;32.58
75166;BME280;63747;48.042;10.088;2023-06-22T11:40:37;95003.69;;;35.20;33.51
75166;BME280;63747;48.042;10.088;2023-06-22T11:43:38;94999.78;;;35.51;31.91
75166;BME280;63747;48.042;10.088;2023-06-22T11:46:39;94984.50;;;35.32;32.03
75166;BME280;63747;48.042;10.088;2023-06-22T11:49:41;94989.59;;;35.42;31.37
75166;BME280;63747;48.042;10.088;2023-06-22T11:52:41;94989.22;;;35.02;31.76
75166;BME280;63747;48.042;10.088;2023-06-22T11:55:45;94986.28;;;35.37;32.37
75166;BME280;63747;48.042;10.088;2023-06-22T11:58:46;94986.13;;;35.33;31.54
75166;BME280;63747;48.042;10.088;2023-06-22T12:01:47;94981.13;;;34.76;32.78
75166;BME280;63747;48.042;10.088;2023-06-22T12:04:47;94988.38;;;34.51;32.25
75166;BME280;63747;48.042;10.088;2023-06-22T12:07:48;94988.75;;;35.00;32.53
75166;BME280;63747;48.042;10.088;2023-06-22T12:10:49;94986.09;;;35.54;31.30
75166;BME280;63747;48.042;10.088;2023-06-22T12:13:50;94981.84;;;35.15;31.05
75166;BME280;63747;48.042;10.088;2023-06-22T12:16:51;94980.88;;;35.40;31.13
75166;BME280;63747;48.042;10.088;2023-06-22T12:19:52;94985.66;;;35.02;29.49
75166;BME280;63747;48.042;10.088;2023-06-22T12:22:52;94989.63;;;34.62;29.82
75166;BME280;63747;48.042;10.088;2023-06-22T12:25:55;94982.63;;;34.27;29.37
75166;BME280;63747;48.042;10.088;2023-06-22T12:28:56;94982.22;;;33.99;30.21
75166;BME280;63747;48.042;10.088;2023-06-22T12:31:56;94984.50;;;33.97;29.90
75166;BME280;63747;48.042;10.088;2023-06-22T12:34:57;94990.34;;;33.60;31.17
75166;BME280;63747;48.042;10.088;2023-06-22T12:37:58;94998.75;;;33.38;31.18
75166;BME280;63747;48.042;10.088;2023-06-22T12:40:59;94991.16;;;33.78;31.26
75166;BME280;63747;48.042;10.088;2023-06-22T12:43:59;94986.69;;;34.29;31.05
75166;BME280;63747;48.042;10.088;2023-06-22T12:47:00;94986.19;;;34.27;30.47
75166;BME280;63747;48.042;10.088;2023-06-22T12:50:01;94971.66;;;34.18;31.15
75166;BME280;63747;48.042;10.088;2023-06-22T12:53:01;94978.06;;;34.39;31.65
75166;BME280;63747;48.042;10.088;2023-06-22T12:56:04;94982.19;;;34.07;31.15
75166;BME280;63747;48.042;10.088;2023-06-22T12:59:04;94975.50;;;33.44;32.26
75166;BME280;63747;48.042;10.088;2023-06-22T13:02:06;94967.56;;;33.17;33.39
75166;BME280;63747;48.042;10.088;2023-06-22T13:05:07;94949.47;;;33.33;33.17
75166;BME280;63747;48.042;10.088;2023-06-22T13:08:07;94977.75;;;33.59;33.29
75166;BME280;63747;48.042;10.088;2023-06-22T13:11:08;94983.06;;;33.82;32.58
75166;BME280;63747;48.042;10.088;2023-06-22T13:14:09;94988.28;;;33.40;33.31
75166;BME280;63747;48.042;10.088;2023-06-22T13:17:09;94979.53;;;33.47;33.35
75166;BME280;63747;48.042;10.088;2023-06-22T13:20:10;94980.19;;;33.35;33.22
75166;BME280;63747;48.042;10.088;2023-06-22T13:23:11;94995.53;;;33.19;33.65
75166;BME280;63747;48.042;10.088;2023-06-22T13:26:12;94987.13;;;33.15;34.21
75166;BME280;63747;48.042;10.088;2023-06-22T13:29:12;94988.91;;;33.02;34.00
75166;BME280;63747;48.042;10.088;2023-06-22T13:32:13;94988.81;;;32.85;34.13
75166;BME280;63747;48.042;10.088;2023-06-22T13:35:14;94983.09;;;32.47;34.70
75166;BME280;63747;48.042;10.088;2023-06-22T13:38:14;94989.22;;;32.44;35.54
75166;BME280;63747;48.042;10.088;2023-06-22T13:41:15;94981.19;;;32.25;35.89
75166;BME280;63747;48.042;10.088;2023-06-22T13:44:16;94978.03;;;32.40;35.38
75166;BME280;63747;48.042;10.088;2023-06-22T13:47:17;94960.88;;;32.26;35.29
75166;BME280;63747;48.042;10.088;2023-06-22T13:50:17;94966.78;;;32.42;35.34
75166;BME280;63747;48.042;10.088;2023-06-22T13:53:18;94967.88;;;32.98;34.92
75166;BME280;63747;48.042;10.088;2023-06-22T13:56:19;94966.63;;;33.56;33.81
75166;BME280;63747;48.042;10.088;2023-06-22T13:59:19;94965.47;;;33.57;33.43
75166;BME280;63747;48.042;10.088;2023-06-22T14:02:21;94961.09;;;33.65;32.61
75166;BME280;63747;48.042;10.088;2023-06-22T14:05:21;94961.63;;;34.13;32.69
75166;BME280;63747;48.042;10.088;2023-06-22T14:08:22;94960.88;;;34.04;32.03
75166;BME280;63747;48.042;10.088;2023-06-22T14:11:24;94949.31;;;33.55;33.27
75166;BME280;63747;48.042;10.088;2023-06-22T14:14:25;94958.06;;;33.14;33.90
75166;BME280;63747;48.042;10.088;2023-06-22T14:17:26;94956.03;;;32.71;33.92
75166;BME280;63747;48.042;10.088;2023-06-22T14:20:27;94948.44;;;32.77;33.84
75166;BME280;63747;48.042;10.088;2023-06-22T14:23:28;94945.59;;;32.99;33.71
75166;BME280;63747;48.042;10.088;2023-06-22T14:26:28;94943.78;;;33.64;33.32
75166;BME280;63747;48.042;10.088;2023-06-22T14:29:29;94937.28;;;33.95;33.57
75166;BME280;63747;48.042;10.088;2023-06-22T14:32:30;94927.91;;;33.96;32.47
75166;BME280;63747;48.042;10.088;2023-06-22T14:35:30;94926.53;;;33.29;33.16
75166;BME280;63747;48.042;10.088;2023-06-22T14:38:31;94926.47;;;32.60;33.68
75166;BME280;63747;48.042;10.088;2023-06-22T14:41:32;94926.28;;;32.56;34.01
75166;BME280;63747;48.042;10.088;2023-06-22T14:44:33;94916.53;;;33.07;33.35
75166;BME280;63747;48.042;10.088;2023-06-22T14:47:33;94910.28;;;33.79;33.15
75166;BME280;63747;48.042;10.088;2023-06-22T14:50:34;94919.94;;;33.94;33.48
75166;BME280;63747;48.042;10.088;2023-06-22T14:53:35;94919.53;;;34.22;31.68
75166;BME280;63747;48.042;10.088;2023-06-22T14:56:36;94907.19;;;33.81;32.69
75166;BME280;63747;48.042;10.088;2023-06-22T14:59:37;94906.78;;;33.62;32.79
75166;BME280;63747;48.042;10.088;2023-06-22T15:02:37;94912.03;;;33.84;32.96
75166;BME280;63747;48.042;10.088;2023-06-22T15:05:38;94913.66;;;33.94;32.74
75166;BME280;63747;48.042;10.088;2023-06-22T15:08:40;94913.50;;;33.90;33.46
75166;BME280;63747;48.042;10.088;2023-06-22T15:11:41;94906.59;;;33.75;32.90
75166;BME280;63747;48.042;10.088;2023-06-22T15:14:41;94905.59;;;33.89;32.78
75166;BME280;63747;48.042;10.088;2023-06-22T15:17:42;94924.84;;;33.89;32.96
75166;BME280;63747;48.042;10.088;2023-06-22T15:20:43;94915.69;;;33.50;33.28
75166;BME280;63747;48.042;10.088;2023-06-22T15:23:45;94918.44;;;33.50;33.58
75166;BME280;63747;48.042;10.088;2023-06-22T15:26:46;94930.41;;;33.19;33.57
75166;BME280;63747;48.042;10.088;2023-06-22T15:29:46;94944.94;;;33.11;33.75
75166;BME280;63747;48.042;10.088;2023-06-22T15:32:48;94946.88;;;33.19;34.04
75166;BME280;63747;48.042;10.088;2023-06-22T15:35:49;94947.03;;;32.97;34.33
75166;BME280;63747;48.042;10.088;2023-06-22T15:38:50;94952.63;;;32.66;35.37
75166;BME280;63747;48.042;10.088;2023-06-22T15:41:50;94940.03;;;32.16;35.68
75166;BME280;63747;48.042;10.088;2023-06-22T15:44:54;94928.06;;;31.81;36.47
75166;BME280;63747;48.042;10.088;2023-06-22T15:47:54;94906.13;;;31.50;36.85
75166;BME280;63747;48.042;10.088;2023-06-22T15:50:55;94917.97;;;31.59;37.37